createdAt,value
2019-02-10T00:03:13.040Z,1.07
2019-02-10T00:08:17.286Z,1.10
2019-02-10T00:13:26.043Z,1.70
2019-02-10T00:18:30.212Z,1.30
2019-02-10T00:23:35.124Z,1.03
2019-02-10T00:28:39.306Z,1.20
2019-02-10T00:33:44.530Z,1.10
2019-02-10T00:38:48.719Z,1.10
2019-02-10T00:43:53.492Z,1.33
2019-02-10T00:48:57.670Z,1.20
2019-02-10T00:54:02.856Z,1.00
2019-02-10T00:59:07.027Z,1.20
2019-02-10T01:04:11.553Z,1.30
2019-02-10T01:09:15.812Z,1.20
2019-02-10T01:14:20.876Z,1.30
2019-02-10T01:19:25.057Z,1.43
2019-02-10T01:24:29.299Z,1.20
2019-02-10T01:29:33.478Z,1.03
2019-02-10T01:34:37.655Z,1.27
2019-02-10T01:39:41.826Z,1.40
2019-02-10T01:44:47.235Z,1.20
2019-02-10T01:49:51.416Z,1.20
2019-02-10T01:54:57.260Z,0.93
2019-02-10T02:00:01.460Z,1.10
2019-02-10T02:05:08.143Z,1.00
2019-02-10T02:10:12.530Z,1.30
2019-02-10T02:15:18.278Z,1.00
2019-02-10T02:20:22.510Z,1.50
2019-02-10T02:25:26.967Z,1.20
2019-02-10T02:30:31.206Z,1.17
2019-02-10T02:35:35.491Z,1.30
2019-02-10T02:40:39.659Z,0.90
2019-02-10T02:45:45.319Z,1.20
2019-02-10T02:50:49.502Z,1.20
2019-02-10T02:55:53.690Z,1.57
2019-02-10T03:00:57.876Z,1.10
2019-02-10T03:06:03.451Z,1.40
2019-02-10T03:11:07.630Z,1.07
2019-02-10T03:16:14.008Z,1.30
2019-02-10T03:21:18.176Z,1.00
2019-02-10T03:26:23.586Z,1.37
2019-02-10T03:31:27.759Z,1.23
2019-02-10T03:36:31.935Z,1.70
2019-02-10T03:41:36.094Z,1.40
2019-02-10T03:46:41.649Z,1.63
2019-02-10T03:51:45.817Z,1.40
2019-02-10T03:56:51.259Z,1.77
2019-02-10T04:01:55.483Z,1.90
2019-02-10T04:06:59.671Z,1.63
2019-02-10T04:12:03.847Z,1.30
2019-02-10T04:17:09.717Z,1.60
2019-02-10T04:22:13.893Z,2.20
2019-02-10T04:27:19.515Z,2.53
2019-02-10T04:32:23.704Z,2.30
2019-02-10T04:37:28.055Z,1.60
2019-02-10T04:42:32.238Z,1.60
2019-02-10T04:47:37.904Z,1.80
2019-02-10T04:52:42.114Z,2.13
2019-02-10T04:57:47.685Z,1.80
2019-02-10T05:02:51.864Z,2.20
2019-02-10T05:07:57.485Z,1.70
2019-02-10T05:13:01.743Z,1.83
2019-02-10T05:18:07.071Z,2.00
2019-02-10T05:23:11.238Z,1.83
2019-02-10T05:28:16.459Z,1.50
2019-02-10T05:33:20.660Z,1.70
2019-02-10T05:38:24.905Z,1.37
2019-02-10T05:43:29.155Z,1.67
2019-02-10T05:48:34.612Z,2.10
2019-02-10T05:53:38.793Z,1.60
2019-02-10T05:58:44.498Z,1.83
2019-02-10T06:03:48.694Z,1.90
2019-02-10T06:08:54.322Z,1.80
2019-02-10T06:13:58.507Z,1.50
2019-02-10T06:19:04.245Z,2.47
2019-02-10T06:24:08.429Z,1.83
2019-02-10T06:29:13.842Z,1.90
2019-02-10T06:34:18.007Z,1.90
2019-02-10T06:39:22.169Z,1.60
2019-02-10T06:44:26.359Z,2.33
2019-02-10T06:49:31.685Z,2.00
2019-02-10T06:54:37.726Z,2.50
2019-02-10T06:59:50.344Z,1.73
2019-02-10T07:04:54.598Z,1.77
2019-02-10T07:10:01.365Z,2.07
2019-02-10T07:15:05.661Z,2.07
2019-02-10T07:20:28.436Z,2.07
2019-02-10T07:25:43.232Z,1.93
2019-02-10T07:30:48.903Z,2.63
2019-02-10T07:36:24.795Z,2.60
2019-02-10T07:41:51.305Z,2.60
2019-02-10T07:47:05.713Z,2.20
2019-02-10T07:52:35.032Z,2.43
2019-02-10T07:57:58.010Z,1.90
2019-02-10T08:03:27.638Z,1.43
2019-02-10T08:08:49.719Z,1.93
2019-02-10T08:14:03.552Z,1.90
2019-02-10T08:19:25.963Z,1.60
2019-02-10T08:24:49.518Z,1.80
2019-02-10T08:30:31.139Z,1.70
2019-02-10T08:35:54.615Z,1.50
2019-02-10T08:41:31.079Z,2.20
2019-02-10T08:46:47.342Z,2.13
2019-02-10T08:52:01.373Z,2.23
2019-02-10T08:57:05.742Z,2.50
2019-02-10T09:02:12.338Z,2.10
2019-02-10T09:07:16.619Z,2.13
2019-02-10T09:12:26.060Z,2.07
2019-02-10T09:17:30.311Z,2.00
2019-02-10T09:22:34.594Z,1.77
2019-02-10T09:27:38.845Z,2.00
2019-02-10T09:32:43.039Z,1.90
2019-02-10T09:37:47.230Z,2.00
2019-02-10T09:42:51.544Z,2.33
2019-02-10T09:47:56.256Z,2.20
2019-02-10T09:53:00.502Z,2.90
2019-02-10T09:58:05.003Z,1.93
2019-02-10T10:03:09.498Z,1.70
2019-02-10T10:08:14.006Z,2.30
2019-02-10T10:13:18.564Z,2.10
2019-02-10T10:18:22.782Z,2.10
2019-02-10T10:23:26.968Z,2.33
2019-02-10T10:28:31.155Z,2.50
2019-02-10T10:33:35.454Z,2.50
2019-02-10T10:38:39.674Z,1.27
2019-02-10T10:43:43.855Z,1.83
2019-02-10T10:48:48.124Z,2.30
2019-02-10T10:53:52.343Z,2.20
2019-02-10T10:58:57.178Z,2.63
2019-02-10T11:04:01.751Z,2.17
2019-02-10T11:09:08.343Z,2.40
2019-02-10T11:14:13.054Z,2.73
2019-02-10T11:19:17.350Z,1.90
2019-02-10T11:24:28.517Z,2.07
2019-02-10T11:29:27.423Z,1.90
2019-02-10T11:34:31.614Z,2.30
2019-02-10T11:39:43.404Z,2.10
2019-02-10T11:44:41.782Z,1.80
2019-02-10T11:49:46.020Z,2.30
2019-02-10T11:54:50.203Z,2.10
2019-02-10T11:59:54.487Z,1.90
2019-02-10T12:04:58.828Z,1.90
2019-02-10T12:10:07.259Z,1.87
2019-02-10T12:15:11.426Z,2.03
2019-02-10T12:20:15.695Z,1.90
2019-02-10T12:25:20.102Z,2.07
2019-02-10T12:30:25.600Z,2.00
2019-02-10T12:35:29.870Z,2.13
2019-02-10T12:40:34.715Z,2.10
2019-02-10T12:45:38.977Z,2.40
2019-02-10T12:50:43.251Z,1.90
2019-02-10T12:55:47.471Z,2.10
2019-02-10T13:00:52.862Z,1.30
2019-02-10T13:05:57.075Z,1.13
2019-02-10T13:11:02.583Z,1.10
2019-02-10T13:16:06.846Z,1.20
2019-02-10T13:21:11.126Z,1.23
2019-02-10T13:26:15.323Z,1.20
2019-02-10T13:31:20.832Z,1.20
2019-02-10T13:36:25.040Z,1.10
2019-02-10T13:41:34.864Z,1.00
2019-02-10T13:46:39.051Z,1.20
2019-02-10T13:51:44.972Z,1.40
2019-02-10T13:56:49.197Z,1.30
2019-02-10T14:01:53.467Z,1.20
2019-02-10T14:06:57.650Z,1.00
2019-02-10T14:12:03.191Z,1.23
2019-02-10T14:17:07.379Z,1.10
2019-02-10T14:22:11.659Z,0.90
2019-02-10T14:27:16.051Z,1.30
2019-02-10T14:32:20.903Z,1.20
2019-02-10T14:37:25.211Z,1.00
2019-02-10T14:42:29.423Z,1.40
2019-02-10T14:47:33.625Z,1.20
2019-02-10T14:52:39.083Z,1.17
2019-02-10T14:57:43.283Z,1.23
2019-02-10T15:02:48.752Z,1.30
2019-02-10T15:07:52.930Z,1.10
2019-02-10T15:12:58.284Z,1.60
2019-02-10T15:18:02.466Z,1.40
2019-02-10T15:23:07.276Z,1.60
2019-02-10T15:28:11.463Z,1.77
2019-02-10T15:33:16.983Z,1.57
2019-02-10T15:38:21.167Z,1.30
2019-02-10T15:43:25.356Z,1.40
2019-02-10T15:48:29.550Z,1.37
2019-02-10T15:53:34.298Z,1.97
2019-02-10T15:58:39.453Z,1.60
2019-02-10T16:03:44.917Z,1.20
2019-02-10T16:08:49.268Z,1.50
2019-02-10T16:13:54.790Z,1.50
2019-02-10T16:18:59.130Z,1.27
2019-02-10T16:24:04.895Z,1.30
2019-02-10T16:29:09.247Z,1.20
2019-02-10T16:34:14.503Z,1.20
2019-02-10T16:39:18.780Z,1.20
2019-02-10T16:44:22.937Z,1.10
2019-02-10T16:49:27.120Z,1.60
2019-02-10T16:54:32.376Z,1.40
2019-02-10T16:59:36.667Z,1.43
2019-02-10T17:04:42.047Z,1.70
2019-02-10T17:09:46.376Z,1.60
2019-02-10T17:14:51.726Z,1.20
2019-02-10T17:19:55.908Z,1.07
2019-02-10T17:25:01.682Z,1.60
2019-02-10T17:30:07.242Z,1.43
2019-02-10T17:35:12.799Z,1.63
2019-02-10T17:40:18.990Z,1.70
2019-02-10T17:45:24.514Z,1.10
2019-02-10T17:50:28.688Z,1.03
2019-02-10T17:55:34.854Z,1.00
2019-02-10T18:00:43.194Z,1.10
2019-02-10T18:05:49.255Z,1.00
2019-02-10T18:10:53.722Z,0.80
2019-02-10T18:16:30.747Z,0.90
2019-02-10T18:21:59.975Z,0.97
2019-02-10T18:27:33.651Z,0.80
2019-02-10T18:32:57.671Z,0.90
2019-02-10T18:38:11.346Z,0.80
2019-02-10T18:43:32.578Z,0.70
2019-02-10T18:48:50.849Z,0.70
2019-02-10T18:54:12.734Z,0.90
2019-02-10T18:59:35.024Z,0.70
2019-02-10T19:04:54.354Z,0.60
2019-02-10T19:10:28.580Z,0.60
2019-02-10T19:15:44.442Z,0.67
2019-02-10T19:20:57.410Z,0.70
2019-02-10T19:26:12.115Z,0.63
2019-02-10T19:31:24.414Z,0.50
2019-02-10T19:36:47.252Z,0.70
2019-02-10T19:42:09.799Z,0.60
2019-02-10T19:47:25.994Z,0.60
2019-02-10T19:52:49.402Z,0.70
2019-02-10T19:58:12.545Z,0.70
2019-02-10T20:03:47.743Z,1.10
2019-02-10T20:09:01.868Z,0.87
2019-02-10T20:14:16.333Z,0.90
2019-02-10T20:19:43.635Z,0.70
2019-02-10T20:25:19.114Z,0.63
2019-02-10T20:30:45.406Z,0.80
2019-02-10T20:36:03.055Z,0.60
2019-02-10T20:41:20.503Z,0.70
2019-02-10T20:46:55.913Z,0.77
2019-02-10T20:52:11.163Z,0.73
2019-02-10T20:57:46.642Z,0.80
2019-02-10T21:03:00.287Z,0.70
2019-02-10T21:08:11.474Z,0.80
2019-02-10T21:13:33.579Z,0.60
2019-02-10T21:18:49.751Z,0.83
2019-02-10T21:24:13.087Z,0.80
2019-02-10T21:29:40.054Z,1.00
2019-02-10T21:35:01.983Z,0.90
2019-02-10T21:40:18.053Z,0.73
2019-02-10T21:45:28.538Z,0.80
2019-02-10T21:50:32.978Z,0.87
2019-02-10T21:55:37.166Z,0.87
2019-02-10T22:00:42.203Z,0.73
2019-02-10T22:05:46.393Z,0.93
2019-02-10T22:10:51.583Z,0.73
2019-02-10T22:15:55.755Z,0.80
2019-02-10T22:21:00.412Z,0.70
2019-02-10T22:26:04.598Z,1.10
2019-02-10T22:31:09.144Z,0.77
2019-02-10T22:36:13.397Z,0.80
2019-02-10T22:41:17.910Z,0.73
2019-02-10T22:46:22.090Z,0.70
2019-02-10T22:51:26.276Z,0.90
2019-02-10T22:56:30.444Z,0.80
2019-02-10T23:01:35.020Z,0.80
2019-02-10T23:06:39.215Z,0.80
2019-02-10T23:11:44.139Z,0.60
2019-02-10T23:16:48.332Z,0.70
2019-02-10T23:21:53.310Z,0.70
2019-02-10T23:26:57.470Z,0.60
2019-02-10T23:32:01.677Z,0.70
2019-02-10T23:37:05.842Z,0.60
2019-02-10T23:42:10.865Z,0.60
2019-02-10T23:47:15.028Z,0.80
2019-02-10T23:52:19.210Z,1.17
2019-02-10T23:57:23.378Z,0.80
